createdAt,value
2023-04-20T00:00:44.327Z,102369.91
2023-04-20T00:03:29.657Z,102367.50
2023-04-20T00:06:15.690Z,102365.00
2023-04-20T00:09:01.946Z,102364.09
2023-04-20T00:11:47.381Z,102365.66
2023-04-20T00:14:32.683Z,102349.88
2023-04-20T00:17:18.069Z,102354.84
2023-04-20T00:20:04.112Z,102351.94
2023-04-20T00:22:49.356Z,102353.66
2023-04-20T00:25:34.927Z,102339.72
2023-04-20T00:28:20.281Z,102331.72
2023-04-20T00:31:06.109Z,102329.00
2023-04-20T00:33:51.496Z,102328.84
2023-04-20T00:36:36.984Z,102337.44
2023-04-20T00:39:22.556Z,102327.81
2023-04-20T00:42:08.641Z,102335.44
2023-04-20T00:44:54.272Z,102344.72
2023-04-20T00:47:40.695Z,102336.78
2023-04-20T00:50:26.748Z,102334.84
2023-04-20T00:53:13.173Z,102331.94
2023-04-20T00:55:58.598Z,102333.41
2023-04-20T00:58:44.416Z,102336.88
2023-04-20T01:01:30.086Z,102334.19
2023-04-20T01:04:16.689Z,102338.19
2023-04-20T01:07:02.874Z,102331.91
2023-04-20T01:09:48.279Z,102326.78
2023-04-20T01:12:33.970Z,102317.16
2023-04-20T01:15:19.408Z,102319.03
2023-04-20T01:18:06.997Z,102308.97
2023-04-20T01:20:52.763Z,102306.25
2023-04-20T01:23:39.377Z,102312.81
2023-04-20T01:26:26.077Z,102311.69
2023-04-20T01:29:11.722Z,102301.78
2023-04-20T01:31:58.092Z,102293.16
2023-04-20T01:34:44.153Z,102292.16
2023-04-20T01:37:29.763Z,102282.59
2023-04-20T01:40:16.352Z,102267.91
2023-04-20T01:43:02.650Z,102269.69
2023-04-20T01:45:48.539Z,102267.03
2023-04-20T01:48:34.750Z,102273.78
2023-04-20T01:51:20.514Z,102282.28
2023-04-20T01:54:06.419Z,102286.28
2023-04-20T01:56:53.222Z,102288.47
2023-04-20T01:59:38.621Z,102294.50
2023-04-20T02:02:24.714Z,102300.78
2023-04-20T02:05:10.588Z,102307.75
2023-04-20T02:07:56.269Z,102316.06
2023-04-20T02:10:41.905Z,102313.28
2023-04-20T02:13:28.051Z,102310.53
2023-04-20T02:16:16.533Z,102312.28
2023-04-20T02:19:03.202Z,102309.63
2023-04-20T02:21:48.564Z,102303.63
2023-04-20T02:24:33.971Z,102296.47
2023-04-20T02:27:19.213Z,102288.81
2023-04-20T02:30:05.495Z,102280.22
2023-04-20T02:32:50.935Z,102279.13
2023-04-20T02:35:36.766Z,102280.78
2023-04-20T02:38:22.693Z,102271.25
2023-04-20T02:41:08.610Z,102273.06
2023-04-20T02:43:54.743Z,102286.22
2023-04-20T02:46:40.039Z,102288.75
2023-04-20T02:49:26.401Z,102291.00
2023-04-20T02:52:12.228Z,102297.41
2023-04-20T02:54:58.119Z,102305.88
2023-04-20T02:57:43.768Z,102306.44
2023-04-20T03:00:28.976Z,102321.88
2023-04-20T03:03:21.772Z,102323.19
2023-04-20T03:06:10.398Z,102330.66
2023-04-20T03:08:56.706Z,102331.41
2023-04-20T03:12:02.877Z,102325.19
2023-04-20T03:15:08.686Z,102329.53
2023-04-20T03:18:16.358Z,102328.91
2023-04-20T03:21:02.364Z,102328.28
2023-04-20T03:23:49.557Z,102329.34
2023-04-20T03:26:36.616Z,102322.75
2023-04-20T03:29:34.315Z,102315.81
2023-04-20T03:32:19.801Z,102312.50
2023-04-20T03:35:06.080Z,102323.66
2023-04-20T03:37:51.417Z,102328.69
2023-04-20T03:40:36.672Z,102332.13
2023-04-20T03:43:23.247Z,102330.97
2023-04-20T03:46:08.473Z,102325.44
2023-04-20T03:48:53.854Z,102331.31
2023-04-20T03:51:38.951Z,102320.72
2023-04-20T03:54:24.893Z,102304.50
2023-04-20T03:57:10.569Z,102305.38
2023-04-20T03:59:56.942Z,102303.00
2023-04-20T04:02:45.709Z,102303.81
2023-04-20T04:05:33.264Z,102304.50
2023-04-20T04:08:19.498Z,102303.63
2023-04-20T04:11:05.302Z,102298.16
2023-04-20T04:13:51.132Z,102304.13
2023-04-20T04:16:36.853Z,102297.47
2023-04-20T04:19:22.680Z,102298.09
2023-04-20T04:22:08.447Z,102282.56
2023-04-20T04:24:59.072Z,102290.75
2023-04-20T04:27:46.578Z,102284.09
2023-04-20T04:30:32.327Z,102282.59
2023-04-20T04:33:19.178Z,102298.09
2023-04-20T04:36:07.216Z,102293.84
2023-04-20T04:38:53.392Z,102292.06
2023-04-20T04:41:40.069Z,102291.81
2023-04-20T04:44:35.887Z,102288.28
2023-04-20T04:47:22.163Z,102297.66
2023-04-20T04:50:09.419Z,102292.25
2023-04-20T04:52:55.443Z,102279.41
2023-04-20T04:55:40.914Z,102283.16
2023-04-20T04:58:26.542Z,102282.59
2023-04-20T05:01:12.054Z,102289.47
2023-04-20T05:03:57.571Z,102284.56
2023-04-20T05:06:43.217Z,102283.06
2023-04-20T05:09:33.478Z,102294.00
2023-04-20T05:12:19.376Z,102288.72
2023-04-20T05:15:05.398Z,102296.19
2023-04-20T05:17:51.186Z,102287.72
2023-04-20T05:20:36.714Z,102282.59
2023-04-20T05:23:22.024Z,102286.06
2023-04-20T05:26:07.355Z,102280.38
2023-04-20T05:28:52.600Z,102277.94
2023-04-20T05:31:37.902Z,102285.13
2023-04-20T05:34:23.147Z,102293.06
2023-04-20T05:37:09.517Z,102292.28
2023-04-20T05:39:54.600Z,102293.25
2023-04-20T05:42:39.903Z,102297.47
2023-04-20T05:45:25.087Z,102290.47
2023-04-20T05:48:10.970Z,102293.88
2023-04-20T05:50:56.230Z,102299.06
2023-04-20T05:53:41.815Z,102289.69
2023-04-20T05:56:27.523Z,102307.91
2023-04-20T05:59:12.892Z,102302.06
2023-04-20T06:01:58.086Z,102310.69
2023-04-20T06:04:43.506Z,102308.22
2023-04-20T06:07:28.893Z,102312.50
2023-04-20T06:10:14.138Z,102314.41
2023-04-20T06:12:59.500Z,102322.19
2023-04-20T06:15:44.905Z,102324.84
2023-04-20T06:18:30.017Z,102318.09
2023-04-20T06:21:16.409Z,102310.31
2023-04-20T06:24:01.680Z,102312.09
2023-04-20T06:26:46.878Z,102304.59
2023-04-20T06:29:32.131Z,102310.03
2023-04-20T06:32:17.500Z,102311.00
2023-04-20T06:35:04.443Z,102311.94
2023-04-20T06:37:50.111Z,102304.31
2023-04-20T06:40:35.400Z,102318.38
2023-04-20T06:43:20.699Z,102312.47
2023-04-20T06:46:05.946Z,102311.63
2023-04-20T06:48:51.345Z,102309.88
2023-04-20T06:51:36.915Z,102310.06
2023-04-20T06:54:22.897Z,102320.84
2023-04-20T06:57:08.346Z,102322.31
2023-04-20T06:59:56.635Z,102327.81
2023-04-20T07:02:42.654Z,102330.66
2023-04-20T07:05:28.950Z,102325.25
2023-04-20T07:08:16.160Z,102317.22
2023-04-20T07:11:01.905Z,102313.63
2023-04-20T07:13:47.189Z,102303.16
2023-04-20T07:16:32.741Z,102289.50
2023-04-20T07:19:18.180Z,102288.97
2023-04-20T07:22:03.634Z,102291.84
2023-04-20T07:24:49.247Z,102294.31
2023-04-20T07:27:35.379Z,102293.94
2023-04-20T07:30:20.853Z,102288.88
2023-04-20T07:33:06.889Z,102302.63
2023-04-20T07:35:52.377Z,102294.63
2023-04-20T07:38:37.575Z,102291.03
2023-04-20T07:41:26.024Z,102289.88
2023-04-20T07:44:13.062Z,102295.88
2023-04-20T07:46:58.318Z,102298.50
2023-04-20T07:49:44.105Z,102306.34
2023-04-20T07:52:29.512Z,102296.75
2023-04-20T07:55:15.762Z,102288.19
2023-04-20T07:58:01.255Z,102303.06
2023-04-20T08:00:47.381Z,102308.25
2023-04-20T08:03:33.826Z,102311.69
2023-04-20T08:06:19.223Z,102308.34
2023-04-20T08:09:05.258Z,102311.97
2023-04-20T08:11:51.247Z,102320.91
2023-04-20T08:14:38.282Z,102309.78
2023-04-20T08:17:23.602Z,102309.91
2023-04-20T08:20:09.296Z,102305.94
2023-04-20T08:22:54.434Z,102325.19
2023-04-20T08:25:41.166Z,102306.97
2023-04-20T08:28:33.547Z,102310.53
2023-04-20T08:31:19.710Z,102304.56
2023-04-20T08:34:05.071Z,102303.81
2023-04-20T08:36:51.168Z,102317.13
2023-04-20T08:39:36.621Z,102308.59
2023-04-20T08:42:22.138Z,102317.28
2023-04-20T08:45:07.573Z,102319.22
2023-04-20T08:47:53.418Z,102321.97
2023-04-20T08:50:41.245Z,102324.78
2023-04-20T08:53:26.646Z,102323.03
2023-04-20T08:56:12.058Z,102305.97
2023-04-20T08:58:57.285Z,102308.94
2023-04-20T09:01:43.321Z,102304.69
2023-04-20T09:04:29.066Z,102316.06
2023-04-20T09:07:18.650Z,102306.53
2023-04-20T09:10:03.980Z,102322.50
2023-04-20T09:12:49.252Z,102306.00
2023-04-20T09:15:34.624Z,102313.84
2023-04-20T09:18:19.926Z,102309.38
2023-04-20T09:21:09.061Z,102315.53
2023-04-20T09:23:57.792Z,102313.28
2023-04-20T09:26:43.037Z,102321.69
2023-04-20T09:29:28.626Z,102318.75
2023-04-20T09:32:21.898Z,102312.88
2023-04-20T09:35:08.618Z,102309.34
2023-04-20T09:37:54.552Z,102307.88
2023-04-20T09:40:40.099Z,102294.53
2023-04-20T09:43:27.725Z,102306.88
2023-04-20T09:46:13.272Z,102306.22
2023-04-20T09:49:00.617Z,102306.34
2023-04-20T09:51:46.092Z,102305.69
2023-04-20T09:54:31.897Z,102305.94
2023-04-20T09:57:17.167Z,102306.00
2023-04-20T10:00:02.547Z,102292.00
2023-04-20T10:02:51.855Z,102283.41
2023-04-20T10:05:39.613Z,102293.16
2023-04-20T10:08:24.966Z,102301.03
2023-04-20T10:11:10.603Z,102303.66
2023-04-20T10:13:56.279Z,102296.09
2023-04-20T10:16:41.882Z,102296.22
2023-04-20T10:19:44.829Z,102297.84
2023-04-20T10:22:33.917Z,102283.81
2023-04-20T10:25:24.914Z,102289.88
2023-04-20T10:28:11.023Z,102282.75
2023-04-20T10:30:56.584Z,102289.06
2023-04-20T10:33:54.799Z,102289.22
2023-04-20T10:36:40.850Z,102277.38
2023-04-20T10:39:27.715Z,102281.63
2023-04-20T10:42:13.479Z,102282.25
2023-04-20T10:44:59.702Z,102284.06
2023-04-20T10:47:45.582Z,102287.56
2023-04-20T10:50:30.891Z,102277.28
2023-04-20T10:53:20.642Z,102268.66
2023-04-20T10:56:06.206Z,102274.09
2023-04-20T10:58:51.395Z,102271.75
2023-04-20T11:01:36.804Z,102274.44
2023-04-20T11:04:37.247Z,102267.59
2023-04-20T11:07:22.624Z,102275.47
2023-04-20T11:10:07.983Z,102273.84
2023-04-20T11:12:53.310Z,102266.28
2023-04-20T11:15:39.297Z,102259.59
2023-04-20T11:18:24.834Z,102261.59
2023-04-20T11:21:10.103Z,102251.09
2023-04-20T11:23:55.357Z,102252.03
2023-04-20T11:26:40.836Z,102255.44
2023-04-20T11:29:30.381Z,102254.72
2023-04-20T11:32:18.498Z,102252.44
2023-04-20T11:35:07.832Z,102253.22
2023-04-20T11:37:53.881Z,102242.03
2023-04-20T11:40:39.502Z,102241.28
2023-04-20T11:43:24.849Z,102227.41
2023-04-20T11:46:17.388Z,102237.97
2023-04-20T11:49:04.452Z,102234.75
2023-04-20T11:51:50.272Z,102242.75
2023-04-20T11:54:36.117Z,102242.91
2023-04-20T11:57:23.986Z,102224.84
2023-04-20T12:00:09.496Z,102229.84
2023-04-20T12:03:02.377Z,102226.66
2023-04-20T12:05:48.298Z,102216.25
2023-04-20T12:08:34.245Z,102223.28
2023-04-20T12:11:19.852Z,102231.19
2023-04-20T12:14:05.414Z,102231.34
2023-04-20T12:16:50.552Z,102232.16
2023-04-20T12:19:35.960Z,102227.78
2023-04-20T12:22:21.278Z,102221.88
2023-04-20T12:25:06.945Z,102221.44
2023-04-20T12:27:52.474Z,102223.41
2023-04-20T12:30:37.691Z,102215.75
2023-04-20T12:33:23.004Z,102224.63
2023-04-20T12:36:08.414Z,102227.31
2023-04-20T12:38:55.752Z,102219.47
2023-04-20T12:41:41.363Z,102209.78
2023-04-20T12:44:26.701Z,102216.00
2023-04-20T12:47:13.728Z,102220.38
2023-04-20T12:49:59.559Z,102216.97
2023-04-20T12:52:44.889Z,102218.72
2023-04-20T12:55:30.160Z,102214.41
2023-04-20T12:58:16.243Z,102218.81
2023-04-20T13:01:01.872Z,102213.38
2023-04-20T13:03:47.982Z,102211.72
2023-04-20T13:06:33.670Z,102211.03
2023-04-20T13:09:18.916Z,102209.31
2023-04-20T13:12:04.254Z,102205.84
2023-04-20T13:14:49.413Z,102205.03
2023-04-20T13:17:34.994Z,102211.19
2023-04-20T13:20:20.148Z,102205.06
2023-04-20T13:23:05.685Z,102200.63
2023-04-20T13:25:52.177Z,102199.78
2023-04-20T13:28:37.900Z,102197.13
2023-04-20T13:31:23.286Z,102195.28
2023-04-20T13:34:08.483Z,102193.56
2023-04-20T13:36:53.889Z,102194.22
2023-04-20T13:39:39.037Z,102198.44
2023-04-20T13:42:24.511Z,102185.44
2023-04-20T13:45:10.413Z,102187.13
2023-04-20T13:47:55.744Z,102181.81
2023-04-20T13:50:40.956Z,102188.00
2023-04-20T13:53:26.208Z,102176.66
2023-04-20T13:56:11.407Z,102167.06
2023-04-20T13:58:57.056Z,102163.66
2023-04-20T14:01:42.296Z,102172.59
2023-04-20T14:04:28.069Z,102161.22
2023-04-20T14:07:13.724Z,102158.75
2023-04-20T14:10:02.362Z,102163.16
2023-04-20T14:12:48.601Z,102153.56
2023-04-20T14:15:34.764Z,102150.09
2023-04-20T14:18:20.399Z,102141.38
2023-04-20T14:21:05.889Z,102134.34
2023-04-20T14:23:53.557Z,102140.44
2023-04-20T14:26:39.376Z,102132.53
2023-04-20T14:29:24.921Z,102123.75
2023-04-20T14:32:10.385Z,102122.97
2023-04-20T14:34:55.643Z,102133.38
2023-04-20T14:37:41.373Z,102127.25
2023-04-20T14:40:26.724Z,102112.31
2023-04-20T14:43:11.966Z,102108.00
2023-04-20T14:45:58.820Z,102117.59
2023-04-20T14:48:47.352Z,102100.84
2023-04-20T14:51:32.882Z,102110.50
2023-04-20T14:54:21.553Z,102114.09
2023-04-20T14:57:09.962Z,102102.63
2023-04-20T15:00:05.999Z,102099.84
2023-04-20T15:03:11.662Z,102104.34
2023-04-20T15:06:03.415Z,102098.22
2023-04-20T15:08:59.001Z,102094.75
2023-04-20T15:11:48.008Z,102092.03
2023-04-20T15:14:36.325Z,102091.19
2023-04-20T15:17:21.635Z,102087.63
2023-04-20T15:20:07.288Z,102073.75
2023-04-20T15:22:58.520Z,102073.84
2023-04-20T15:25:43.988Z,102062.44
2023-04-20T15:28:29.347Z,102066.81
2023-04-20T15:31:16.460Z,102068.59
2023-04-20T15:34:02.076Z,102064.28
2023-04-20T15:36:47.282Z,102059.88
2023-04-20T15:39:32.698Z,102051.19
2023-04-20T15:42:18.125Z,102055.63
2023-04-20T15:45:04.173Z,102049.38
2023-04-20T15:47:49.861Z,102044.13
2023-04-20T15:50:35.968Z,102044.13
2023-04-20T15:53:22.327Z,102052.88
2023-04-20T15:56:07.728Z,102042.41
2023-04-20T15:58:52.986Z,102036.28
2023-04-20T16:01:38.341Z,102022.31
2023-04-20T16:04:24.571Z,102024.91
2023-04-20T16:07:10.379Z,102026.66
2023-04-20T16:09:55.845Z,102018.72
2023-04-20T16:12:41.188Z,102016.88
2023-04-20T16:15:26.562Z,102022.13
2023-04-20T16:18:11.801Z,102011.59
2023-04-20T16:20:57.052Z,102009.81
2023-04-20T16:23:42.120Z,102011.63
2023-04-20T16:26:27.402Z,102008.13
2023-04-20T16:29:12.931Z,102002.97
2023-04-20T16:31:58.199Z,102002.91
2023-04-20T16:34:43.505Z,101996.78
2023-04-20T16:37:32.624Z,101995.06
2023-04-20T16:40:21.254Z,101992.44
2023-04-20T16:43:06.689Z,101991.53
2023-04-20T16:45:52.500Z,101996.69
2023-04-20T16:48:37.675Z,101995.78
2023-04-20T16:51:22.894Z,101987.13
2023-04-20T16:54:09.376Z,101992.38
2023-04-20T16:56:55.012Z,101990.63
2023-04-20T16:59:40.236Z,101988.00
2023-04-20T17:02:26.363Z,101999.34
2023-04-20T17:05:11.948Z,101996.72
2023-04-20T17:07:57.022Z,101998.44
2023-04-20T17:10:42.195Z,102007.19
2023-04-20T17:13:27.594Z,102001.91
2023-04-20T17:16:12.877Z,102006.25
2023-04-20T17:18:58.621Z,102015.84
2023-04-20T17:21:45.639Z,102004.50
2023-04-20T17:24:30.921Z,102003.50
2023-04-20T17:27:16.369Z,102009.59
2023-04-20T17:30:02.201Z,102011.22
2023-04-20T17:32:47.929Z,102006.88
2023-04-20T17:35:33.296Z,102010.25
2023-04-20T17:38:19.261Z,102011.16
2023-04-20T17:41:04.988Z,102013.78
2023-04-20T17:43:53.470Z,102006.75
2023-04-20T17:46:38.945Z,102003.22
2023-04-20T17:49:24.030Z,102003.06
2023-04-20T17:52:12.579Z,102001.19
2023-04-20T17:55:00.147Z,101998.53
2023-04-20T17:57:45.441Z,101995.94
2023-04-20T18:00:30.678Z,102004.66
2023-04-20T18:03:16.595Z,101993.34
2023-04-20T18:06:02.784Z,101992.31
2023-04-20T18:08:48.088Z,102003.63
2023-04-20T18:11:33.553Z,101992.16
2023-04-20T18:14:19.309Z,102001.72
2023-04-20T18:17:04.702Z,101995.41
2023-04-20T18:19:49.994Z,101992.66
2023-04-20T18:22:36.816Z,102000.31
2023-04-20T18:25:22.871Z,101996.63
2023-04-20T18:28:07.956Z,101987.72
2023-04-20T18:30:55.658Z,101999.78
2023-04-20T18:33:41.555Z,101996.19
2023-04-20T18:36:27.071Z,101995.94
2023-04-20T18:39:12.328Z,101986.22
2023-04-20T18:41:57.507Z,101986.06
2023-04-20T18:44:42.854Z,101986.72
2023-04-20T18:47:29.676Z,101975.25
2023-04-20T18:50:15.407Z,101981.94
2023-04-20T18:53:00.804Z,101981.81
2023-04-20T18:55:46.632Z,101974.63
2023-04-20T18:58:32.331Z,101971.00
2023-04-20T19:01:17.892Z,101966.50
2023-04-20T19:04:03.584Z,101968.94
2023-04-20T19:06:49.318Z,101966.09
2023-04-20T19:09:34.629Z,101964.22
2023-04-20T19:12:19.977Z,101967.56
2023-04-20T19:15:06.194Z,101963.03
2023-04-20T19:17:52.974Z,101961.97
2023-04-20T19:20:38.526Z,101966.19
2023-04-20T19:23:24.055Z,101961.72
2023-04-20T19:26:09.676Z,101955.56
2023-04-20T19:28:56.458Z,101947.69
2023-04-20T19:31:42.301Z,101955.44
2023-04-20T19:34:27.942Z,101957.06
2023-04-20T19:37:13.219Z,101942.22
2023-04-20T19:39:58.520Z,101936.88
2023-04-20T19:42:43.974Z,101949.78
2023-04-20T19:45:29.181Z,101947.06
2023-04-20T19:48:14.739Z,101934.72
2023-04-20T19:51:01.010Z,101942.34
2023-04-20T19:53:46.710Z,101947.47
2023-04-20T19:56:32.461Z,101943.00
2023-04-20T19:59:18.277Z,101945.50
2023-04-20T20:02:04.196Z,101941.94
2023-04-20T20:04:49.980Z,101930.63
2023-04-20T20:07:35.832Z,101921.00
2023-04-20T20:10:21.446Z,101919.97
2023-04-20T20:13:06.906Z,101912.91
2023-04-20T20:15:53.780Z,101915.34
2023-04-20T20:18:39.596Z,101919.56
2023-04-20T20:21:24.894Z,101915.94
2023-04-20T20:24:10.273Z,101916.09
2023-04-20T20:26:55.488Z,101917.78
2023-04-20T20:29:40.837Z,101916.88
2023-04-20T20:32:26.200Z,101913.38
2023-04-20T20:35:13.072Z,101914.22
2023-04-20T20:37:58.621Z,101908.06
2023-04-20T20:40:44.004Z,101916.63
2023-04-20T20:43:31.586Z,101913.91
2023-04-20T20:46:17.262Z,101914.63
2023-04-20T20:49:03.126Z,101909.31
2023-04-20T20:51:48.549Z,101913.47
2023-04-20T20:54:33.959Z,101908.34
2023-04-20T20:57:19.112Z,101908.34
2023-04-20T21:00:10.441Z,101908.50
2023-04-20T21:02:57.394Z,101909.53
2023-04-20T21:05:42.991Z,101903.44
2023-04-20T21:08:28.150Z,101910.19
2023-04-20T21:11:13.727Z,101908.47
2023-04-20T21:14:02.096Z,101914.56
2023-04-20T21:16:47.676Z,101890.28
2023-04-20T21:19:33.133Z,101898.91
2023-04-20T21:22:20.185Z,101898.03
2023-04-20T21:25:05.789Z,101897.25
2023-04-20T21:27:51.127Z,101897.34
2023-04-20T21:30:36.468Z,101903.44
2023-04-20T21:33:21.769Z,101894.56
2023-04-20T21:36:06.979Z,101897.25
2023-04-20T21:38:52.447Z,101899.88
2023-04-20T21:41:37.665Z,101900.75
2023-04-20T21:44:23.115Z,101905.84
2023-04-20T21:47:08.351Z,101895.47
2023-04-20T21:49:53.617Z,101891.94
2023-04-20T21:52:38.925Z,101895.47
2023-04-20T21:55:24.284Z,101891.84
2023-04-20T21:58:09.617Z,101892.59
2023-04-20T22:00:54.915Z,101892.50
2023-04-20T22:03:40.384Z,101890.66
2023-04-20T22:06:25.929Z,101890.59
2023-04-20T22:09:11.518Z,101886.31
2023-04-20T22:11:57.780Z,101893.25
2023-04-20T22:14:43.232Z,101891.53
2023-04-20T22:17:29.881Z,101888.00
2023-04-20T22:20:16.791Z,101881.81
2023-04-20T22:23:02.426Z,101876.59
2023-04-20T22:25:47.972Z,101883.63
2023-04-20T22:28:33.410Z,101881.13
2023-04-20T22:31:18.767Z,101882.75
2023-04-20T22:34:04.429Z,101881.78
2023-04-20T22:36:49.671Z,101882.53
2023-04-20T22:39:35.159Z,101885.88
2023-04-20T22:42:20.320Z,101894.41
2023-04-20T22:45:06.069Z,101883.06
2023-04-20T22:47:51.338Z,101886.44
2023-04-20T22:50:36.561Z,101873.28
2023-04-20T22:53:21.736Z,101877.69
2023-04-20T22:56:07.673Z,101874.94
2023-04-20T22:58:52.736Z,101874.94
2023-04-20T23:01:38.340Z,101872.34
2023-04-20T23:04:24.112Z,101874.91
2023-04-20T23:07:10.050Z,101875.63
2023-04-20T23:09:56.604Z,101870.41
2023-04-20T23:12:43.070Z,101860.03
2023-04-20T23:15:28.387Z,101852.13
2023-04-20T23:18:13.753Z,101858.88
2023-04-20T23:20:59.022Z,101853.63
2023-04-20T23:23:44.121Z,101852.78
2023-04-20T23:26:29.578Z,101846.72
2023-04-20T23:29:16.519Z,101852.13
2023-04-20T23:32:02.427Z,101850.44
2023-04-20T23:34:48.115Z,101847.00
2023-04-20T23:37:33.413Z,101839.91
2023-04-20T23:40:18.746Z,101832.97
2023-04-20T23:43:04.073Z,101839.13
2023-04-20T23:45:49.586Z,101828.81
2023-04-20T23:48:34.849Z,101843.41
2023-04-20T23:51:20.358Z,101842.41
2023-04-20T23:54:05.989Z,101834.69
2023-04-20T23:56:51.481Z,101828.59
2023-04-20T23:59:36.731Z,101838.06
